createdAt,value
2022-08-27T00:21:28.147Z,94.8
2022-08-27T00:51:45.131Z,95.1
2022-08-27T01:22:06.964Z,96.2
2022-08-27T01:52:23.544Z,97
2022-08-27T02:22:39.187Z,97.7
2022-08-27T02:52:57.042Z,97.1
2022-08-27T03:23:14.548Z,96.90001
2022-08-27T03:53:33.678Z,96.8
2022-08-27T04:23:51.292Z,96.8
2022-08-27T04:54:11.676Z,97.2
2022-08-27T05:24:29.437Z,96.7
2022-08-27T05:54:49.471Z,96.4
2022-08-27T06:25:07.626Z,96.2
2022-08-27T06:55:26.815Z,95.5
2022-08-27T07:25:48.907Z,95
2022-08-27T07:56:08.705Z,94.7
2022-08-27T08:26:30.433Z,92.3
2022-08-27T08:56:54.954Z,91.90001
2022-08-27T09:27:15.695Z,86.6
2022-08-27T09:57:42.680Z,81.6
2022-08-27T10:27:56.347Z,85
2022-08-27T10:58:14.851Z,85.30001
2022-08-27T11:28:30.354Z,86.6
2022-08-27T11:58:53.449Z,90.1
2022-08-27T12:29:13.171Z,86.8
2022-08-27T12:59:36.386Z,90.7
2022-08-27T13:29:51.625Z,90.4
2022-08-27T14:00:11.290Z,85.7
2022-08-27T14:30:29.069Z,88.1
2022-08-27T15:00:46.587Z,87.40001
2022-08-27T15:31:06.557Z,85.80001
2022-08-27T16:01:23.602Z,86
2022-08-27T16:31:41.051Z,85.6
2022-08-27T17:01:58.438Z,85.5
2022-08-27T17:32:14.517Z,87.3
2022-08-27T18:02:30.152Z,89.1
2022-08-27T18:32:46.550Z,89.8
2022-08-27T19:03:06.869Z,90.30001
2022-08-27T19:33:24.528Z,90.4
2022-08-27T20:03:42.112Z,90.7
2022-08-27T20:34:01.368Z,91.2
2022-08-27T21:04:19.254Z,91.50001
2022-08-27T21:34:36.366Z,91.7
2022-08-27T22:04:55.050Z,92
2022-08-27T22:35:13.837Z,92.3
2022-08-27T23:05:32.447Z,93.2
2022-08-27T23:35:51.371Z,93.7
